AUA101 LOWW-LOWI
Flight info
| Callsign | AUA101 |
|---|---|
| Flight time | 0h 40m |
| Altitude | 30000 |
| Route | SOVIL2B/16 SOVIL DCT SITNI DCT BAGSI DCT NANIT NANIT2A |
| Aircraft | A320/M-SDE3FGHIRWY/LB1 |
Departure
| Time | 2026-05-04 17:33 |
|---|---|
| Airport | Vienna International Airport (LOWW) |
Arrival
| Time | 2026-05-04 18:13 |
|---|---|
| Airport | Innsbruck Airport (LOWI) |
| Time | Latitude | Longitude | Altitude | Speed | Heading |
|---|---|---|---|---|---|
| 2026-05-04 17:10 | 48.11609 | 16.56568 | 622 ft | 0 kts | 205° |
| 2026-05-04 17:27 | 48.11569 | 16.56539 | 619 ft | 7 kts | 205° |
| 2026-05-04 17:28 | 48.11500 | 16.56661 | 615 ft | 15 kts | 114° |
| 2026-05-04 17:29 | 48.11342 | 16.57145 | 619 ft | 19 kts | 115° |
| 2026-05-04 17:29 | 48.11582 | 16.57440 | 616 ft | 18 kts | 345° |
| 2026-05-04 17:30 | 48.11816 | 16.57437 | 610 ft | 14 kts | 76° |
| 2026-05-04 17:31 | 48.11851 | 16.57780 | 610 ft | 18 kts | 102° |
| 2026-05-04 17:31 | 48.11517 | 16.58015 | 617 ft | 66 kts | 164° |
| 2026-05-04 17:32 | 48.09890 | 16.58699 | 767 ft | 154 kts | 162° |
| 2026-05-04 17:33 | 48.06755 | 16.59977 | 2764 ft | 161 kts | 171° |
| 2026-05-04 17:33 | 48.05628 | 16.60100 | 3328 ft | 166 kts | 190° |
| 2026-05-04 17:34 | 48.02972 | 16.55624 | 4571 ft | 229 kts | 236° |
| 2026-05-04 17:34 | 48.02090 | 16.53515 | 5103 ft | 250 kts | 235° |
| 2026-05-04 17:35 | 47.98948 | 16.46832 | 7573 ft | 265 kts | 233° |
| 2026-05-04 17:35 | 47.96647 | 16.42470 | 8884 ft | 273 kts | 226° |
| 2026-05-04 17:35 | 47.95323 | 16.40412 | 9296 ft | 279 kts | 226° |
| 2026-05-04 17:36 | 47.93978 | 16.38333 | 9409 ft | 280 kts | 225° |
| 2026-05-04 17:36 | 47.92623 | 16.36236 | 10197 ft | 286 kts | 225° |
| 2026-05-04 17:36 | 47.91182 | 16.34008 | 10445 ft | 310 kts | 225° |
| 2026-05-04 17:36 | 47.89762 | 16.31511 | 10924 ft | 323 kts | 238° |
| 2026-05-04 17:37 | 47.88954 | 16.28354 | 11607 ft | 331 kts | 259° |
| 2026-05-04 17:37 | 47.88995 | 16.24943 | 12319 ft | 339 kts | 277° |
| 2026-05-04 17:37 | 47.89403 | 16.21464 | 13074 ft | 343 kts | 278° |
| 2026-05-04 17:37 | 47.89838 | 16.17958 | 13793 ft | 346 kts | 278° |
| 2026-05-04 17:38 | 47.90285 | 16.14411 | 14419 ft | 349 kts | 278° |
| 2026-05-04 17:38 | 47.90735 | 16.10838 | 15073 ft | 352 kts | 278° |
| 2026-05-04 17:38 | 47.91179 | 16.07240 | 15719 ft | 355 kts | 278° |
| 2026-05-04 17:38 | 47.91621 | 16.03611 | 16359 ft | 357 kts | 278° |
| 2026-05-04 17:39 | 47.92505 | 15.96266 | 17658 ft | 363 kts | 278° |
| 2026-05-04 17:39 | 47.92942 | 15.92598 | 18283 ft | 366 kts | 278° |
| 2026-05-04 17:39 | 47.93386 | 15.88847 | 18838 ft | 369 kts | 278° |
| 2026-05-04 17:40 | 47.93836 | 15.85068 | 19340 ft | 371 kts | 278° |
| 2026-05-04 17:40 | 47.94289 | 15.81265 | 19886 ft | 374 kts | 278° |
| 2026-05-04 17:40 | 47.94744 | 15.77431 | 20438 ft | 377 kts | 278° |
| 2026-05-04 17:40 | 47.95198 | 15.73576 | 20984 ft | 379 kts | 278° |
| 2026-05-04 17:41 | 47.95653 | 15.69685 | 21524 ft | 382 kts | 278° |
| 2026-05-04 17:41 | 47.96111 | 15.65766 | 22047 ft | 385 kts | 279° |
| 2026-05-04 17:41 | 47.96574 | 15.61820 | 22581 ft | 388 kts | 279° |
| 2026-05-04 17:41 | 47.97034 | 15.57887 | 23094 ft | 391 kts | 279° |
| 2026-05-04 17:42 | 47.97501 | 15.53875 | 23586 ft | 394 kts | 279° |
| 2026-05-04 17:42 | 47.97967 | 15.49831 | 23990 ft | 397 kts | 279° |
| 2026-05-04 17:42 | 47.98434 | 15.45758 | 24405 ft | 400 kts | 279° |
| 2026-05-04 17:42 | 47.98906 | 15.41648 | 24800 ft | 402 kts | 279° |
| 2026-05-04 17:43 | 47.99379 | 15.37521 | 25198 ft | 405 kts | 279° |
| 2026-05-04 17:43 | 47.99851 | 15.33374 | 25598 ft | 407 kts | 279° |
| 2026-05-04 17:43 | 48.00327 | 15.29195 | 25977 ft | 409 kts | 279° |
| 2026-05-04 17:43 | 48.00804 | 15.24996 | 26335 ft | 411 kts | 279° |
| 2026-05-04 17:44 | 48.01281 | 15.20776 | 26708 ft | 414 kts | 279° |
| 2026-05-04 17:44 | 48.01752 | 15.16570 | 27047 ft | 416 kts | 279° |
| 2026-05-04 17:44 | 48.02227 | 15.12320 | 27404 ft | 418 kts | 279° |
| 2026-05-04 17:44 | 48.02707 | 15.08022 | 27753 ft | 420 kts | 279° |
| 2026-05-04 17:45 | 48.03188 | 15.03704 | 28102 ft | 422 kts | 279° |
| 2026-05-04 17:45 | 48.03670 | 14.99368 | 28456 ft | 424 kts | 279° |
| 2026-05-04 17:45 | 48.04154 | 14.95001 | 28793 ft | 426 kts | 279° |
| 2026-05-04 17:45 | 48.04637 | 14.90621 | 29129 ft | 428 kts | 279° |
| 2026-05-04 17:46 | 48.05123 | 14.86217 | 29453 ft | 430 kts | 279° |
| 2026-05-04 17:46 | 48.05447 | 14.81773 | 29764 ft | 431 kts | 271° |
| 2026-05-04 17:46 | 48.05492 | 14.77290 | 29881 ft | 428 kts | 270° |
| 2026-05-04 17:46 | 48.05527 | 14.72960 | 29900 ft | 419 kts | 270° |
| 2026-05-04 17:47 | 48.05593 | 14.64316 | 29899 ft | 414 kts | 270° |
| 2026-05-04 17:47 | 48.05645 | 14.55712 | 29892 ft | 414 kts | 270° |
| 2026-05-04 17:48 | 48.05693 | 14.47114 | 29894 ft | 414 kts | 270° |
| 2026-05-04 17:48 | 48.05735 | 14.38575 | 29892 ft | 414 kts | 270° |
| 2026-05-04 17:49 | 48.05460 | 14.30010 | 29885 ft | 413 kts | 258° |
| 2026-05-04 17:49 | 48.03493 | 14.21995 | 29868 ft | 412 kts | 244° |
| 2026-05-04 17:50 | 48.00946 | 14.14329 | 29876 ft | 413 kts | 244° |
| 2026-05-04 17:50 | 47.98393 | 14.06648 | 29884 ft | 412 kts | 244° |
| 2026-05-04 17:51 | 47.95847 | 13.98979 | 29891 ft | 412 kts | 244° |
| 2026-05-04 17:51 | 47.93692 | 13.91063 | 29899 ft | 412 kts | 249° |
| 2026-05-04 17:52 | 47.91760 | 13.83061 | 29910 ft | 412 kts | 250° |
| 2026-05-04 17:52 | 47.89852 | 13.75010 | 29665 ft | 412 kts | 250° |
| 2026-05-04 17:53 | 47.88875 | 13.71000 | 29376 ft | 412 kts | 249° |
| 2026-05-04 17:53 | 47.87883 | 13.66998 | 29101 ft | 412 kts | 249° |
| 2026-05-04 17:53 | 47.86882 | 13.62993 | 28822 ft | 413 kts | 249° |
| 2026-05-04 17:53 | 47.85878 | 13.58980 | 28551 ft | 414 kts | 249° |
| 2026-05-04 17:54 | 47.84875 | 13.54979 | 28061 ft | 411 kts | 249° |
| 2026-05-04 17:54 | 47.83877 | 13.51003 | 27462 ft | 408 kts | 249° |
| 2026-05-04 17:54 | 47.82899 | 13.47126 | 26883 ft | 405 kts | 249° |
| 2026-05-04 17:54 | 47.81924 | 13.43263 | 26326 ft | 402 kts | 249° |
| 2026-05-04 17:55 | 47.80949 | 13.39380 | 25781 ft | 399 kts | 249° |
| 2026-05-04 17:55 | 47.79985 | 13.35532 | 25259 ft | 396 kts | 249° |
| 2026-05-04 17:55 | 47.79024 | 13.31706 | 24731 ft | 394 kts | 249° |
| 2026-05-04 17:55 | 47.78068 | 13.27913 | 24366 ft | 392 kts | 249° |
| 2026-05-04 17:56 | 47.77105 | 13.24111 | 24133 ft | 392 kts | 249° |
| 2026-05-04 17:56 | 47.76143 | 13.20327 | 23905 ft | 392 kts | 249° |
| 2026-05-04 17:56 | 47.75180 | 13.16539 | 23676 ft | 391 kts | 249° |
| 2026-05-04 17:56 | 47.74220 | 13.12764 | 23433 ft | 390 kts | 249° |
| 2026-05-04 17:57 | 47.73264 | 13.09003 | 23158 ft | 389 kts | 249° |
| 2026-05-04 17:57 | 47.72307 | 13.05253 | 22893 ft | 387 kts | 249° |
| 2026-05-04 17:57 | 47.71365 | 13.01573 | 22623 ft | 386 kts | 249° |
| 2026-05-04 17:57 | 47.70415 | 12.97858 | 22351 ft | 384 kts | 249° |
| 2026-05-04 17:58 | 47.69466 | 12.94154 | 22023 ft | 383 kts | 249° |
| 2026-05-04 17:58 | 47.68522 | 12.90477 | 21549 ft | 380 kts | 249° |
| 2026-05-04 17:58 | 47.67586 | 12.86827 | 21090 ft | 377 kts | 249° |
| 2026-05-04 17:58 | 47.66653 | 12.83200 | 20634 ft | 374 kts | 249° |
| 2026-05-04 17:59 | 47.65730 | 12.79614 | 20195 ft | 371 kts | 249° |
| 2026-05-04 17:59 | 47.64810 | 12.76051 | 19758 ft | 368 kts | 248° |
| 2026-05-04 17:59 | 47.63001 | 12.69056 | 18902 ft | 363 kts | 248° |
| 2026-05-04 18:00 | 47.62098 | 12.65579 | 18483 ft | 360 kts | 248° |
| 2026-05-04 18:00 | 47.61200 | 12.62126 | 18045 ft | 358 kts | 248° |
| 2026-05-04 18:00 | 47.60307 | 12.58696 | 17568 ft | 355 kts | 248° |
| 2026-05-04 18:00 | 47.59418 | 12.55287 | 17095 ft | 354 kts | 248° |
| 2026-05-04 18:01 | 47.58533 | 12.51900 | 16635 ft | 352 kts | 248° |
| 2026-05-04 18:01 | 47.57648 | 12.48527 | 16167 ft | 350 kts | 248° |
| 2026-05-04 18:01 | 47.56769 | 12.45174 | 15711 ft | 349 kts | 247° |
| 2026-05-04 18:02 | 47.55030 | 12.38553 | 14829 ft | 345 kts | 247° |
| 2026-05-04 18:02 | 47.54156 | 12.35240 | 14393 ft | 345 kts | 247° |
| 2026-05-04 18:02 | 47.53286 | 12.31938 | 13969 ft | 343 kts | 247° |
| 2026-05-04 18:02 | 47.52420 | 12.28660 | 13528 ft | 341 kts | 247° |
| 2026-05-04 18:03 | 47.51558 | 12.25393 | 13047 ft | 339 kts | 248° |
| 2026-05-04 18:03 | 47.50705 | 12.22162 | 12577 ft | 336 kts | 247° |
| 2026-05-04 18:03 | 47.49860 | 12.18971 | 12124 ft | 334 kts | 247° |
| 2026-05-04 18:03 | 47.49012 | 12.15769 | 11665 ft | 331 kts | 247° |
| 2026-05-04 18:04 | 47.48173 | 12.12608 | 11222 ft | 330 kts | 246° |
| 2026-05-04 18:04 | 47.47350 | 12.09509 | 10844 ft | 327 kts | 246° |
| 2026-05-04 18:04 | 47.45694 | 12.03304 | 10131 ft | 322 kts | 246° |
| 2026-05-04 18:05 | 47.44875 | 12.00240 | 9770 ft | 322 kts | 246° |
| 2026-05-04 18:05 | 47.44056 | 11.97164 | 9487 ft | 319 kts | 246° |
| 2026-05-04 18:05 | 47.43244 | 11.94122 | 9479 ft | 319 kts | 247° |
| 2026-05-04 18:05 | 47.42426 | 11.91065 | 9471 ft | 320 kts | 246° |
| 2026-05-04 18:06 | 47.40790 | 11.85001 | 9469 ft | 308 kts | 246° |
| 2026-05-04 18:06 | 47.40025 | 11.82141 | 9478 ft | 292 kts | 246° |
| 2026-05-04 18:06 | 47.39301 | 11.79465 | 9492 ft | 277 kts | 244° |
| 2026-05-04 18:07 | 47.38323 | 11.77102 | 9371 ft | 267 kts | 229° |
| 2026-05-04 18:07 | 47.37098 | 11.75078 | 9050 ft | 261 kts | 226° |
| 2026-05-04 18:07 | 47.35913 | 11.73149 | 8735 ft | 248 kts | 226° |
| 2026-05-04 18:07 | 47.34771 | 11.71279 | 8318 ft | 244 kts | 226° |
| 2026-05-04 18:08 | 47.33639 | 11.69416 | 7770 ft | 244 kts | 227° |
| 2026-05-04 18:08 | 47.32510 | 11.67555 | 7277 ft | 243 kts | 227° |
| 2026-05-04 18:08 | 47.31407 | 11.65733 | 6771 ft | 233 kts | 229° |
| 2026-05-04 18:08 | 47.30576 | 11.63742 | 6453 ft | 225 kts | 245° |
| 2026-05-04 18:09 | 47.29655 | 11.59392 | 5645 ft | 223 kts | 254° |
| 2026-05-04 18:09 | 47.28967 | 11.55029 | 5160 ft | 208 kts | 253° |
| 2026-05-04 18:10 | 47.28635 | 11.53056 | 5069 ft | 192 kts | 253° |
| 2026-05-04 18:10 | 47.28398 | 11.51189 | 4903 ft | 179 kts | 257° |
| 2026-05-04 18:10 | 47.28158 | 11.49444 | 4623 ft | 171 kts | 252° |
| 2026-05-04 18:10 | 47.27823 | 11.47752 | 4216 ft | 173 kts | 251° |
| 2026-05-04 18:11 | 47.27532 | 11.46030 | 3832 ft | 173 kts | 254° |
| 2026-05-04 18:11 | 47.27226 | 11.44357 | 3485 ft | 171 kts | 254° |
| 2026-05-04 18:11 | 47.26971 | 11.42674 | 3132 ft | 167 kts | 257° |
| 2026-05-04 18:11 | 47.26762 | 11.41038 | 2871 ft | 159 kts | 258° |
| 2026-05-04 18:12 | 47.26580 | 11.39436 | 2598 ft | 157 kts | 259° |
| 2026-05-04 18:12 | 47.26409 | 11.37837 | 2332 ft | 158 kts | 256° |
| 2026-05-04 18:12 | 47.26223 | 11.36250 | 2038 ft | 156 kts | 256° |
| 2026-05-04 18:12 | 47.26057 | 11.34746 | 1904 ft | 131 kts | 258° |
| 2026-05-04 18:13 | 47.25959 | 11.33864 | 1906 ft | 43 kts | 262° |
| 2026-05-04 18:13 | 47.25920 | 11.33529 | 1892 ft | 33 kts | 256° |
| 2026-05-04 18:13 | 47.25843 | 11.33143 | 1896 ft | 0 kts | 257° |
| 2026-05-04 18:17 | 47.25876 | 11.33184 | 1902 ft | 14 kts | 58° |
| 2026-05-04 18:17 | 47.25907 | 11.33365 | 1902 ft | 25 kts | 79° |
| 2026-05-04 18:17 | 47.25843 | 11.33808 | 1898 ft | 22 kts | 126° |
| 2026-05-04 18:18 | 47.25773 | 11.34014 | 1899 ft | 23 kts | 97° |
| 2026-05-04 18:18 | 47.25791 | 11.34253 | 1896 ft | 24 kts | 81° |
| 2026-05-04 18:18 | 47.25817 | 11.34502 | 1899 ft | 25 kts | 81° |
| 2026-05-04 18:18 | 47.25830 | 11.34619 | 1899 ft | 11 kts | 81° |
| 2026-05-04 18:19 | 47.25836 | 11.34675 | 1893 ft | 0 kts | 81° |
| 2026-05-04 18:20 | 47.25839 | 11.34702 | 1895 ft | 8 kts | 82° |
| 2026-05-04 18:20 | 47.25850 | 11.34805 | 1895 ft | 10 kts | 81° |
| 2026-05-04 18:21 | 47.25850 | 11.34860 | 1889 ft | 1 kts | 139° |
| 2026-05-04 18:21 | 47.25837 | 11.34861 | 1895 ft | 4 kts | 173° |
| 2026-05-04 18:21 | 47.25810 | 11.34865 | 1899 ft | 4 kts | 167° |
| 2026-05-04 18:21 | 47.25802 | 11.34868 | 1894 ft | 0 kts | 167° |
| 2026-05-04 18:22 | 47.25801 | 11.34868 | 1894 ft | 0 kts | 167° |